createdAt,value
2019-01-24T00:02:50.445Z,22.5
2019-01-24T00:07:55.651Z,22.5
2019-01-24T00:18:06.358Z,22.4
2019-01-24T00:23:11.785Z,22.4
2019-01-24T00:28:18.126Z,22.4
2019-01-24T00:33:23.258Z,22.4
2019-01-24T00:38:29.216Z,22.4
2019-01-24T00:43:34.925Z,22.4
2019-01-24T00:48:40.585Z,22.3
2019-01-24T00:53:46.239Z,22.3
2019-01-24T01:03:56.339Z,22.3
2019-01-24T01:09:02.391Z,22.3
2019-01-24T01:14:06.265Z,22.3
2019-01-24T01:19:12.423Z,22.3
2019-01-24T01:24:16.176Z,22.3
2019-01-24T01:29:21.550Z,22.2
2019-01-24T01:34:26.573Z,22.2
2019-01-24T01:44:36.164Z,22.2
2019-01-24T01:49:42.121Z,22.2
2019-01-24T01:54:47.626Z,22.2
2019-01-24T01:59:53.340Z,22.2
2019-01-24T02:04:58.406Z,22.1
2019-01-24T02:10:04.314Z,22.1
2019-01-24T02:15:09.589Z,22.1
2019-01-24T02:20:14.012Z,22.1
2019-01-24T02:25:19.881Z,22.1
2019-01-24T02:30:26.417Z,22.1
2019-01-24T02:35:32.331Z,22.1
2019-01-24T02:40:37.576Z,22.1
2019-01-24T02:45:43.237Z,22
2019-01-24T02:50:49.541Z,22
2019-01-24T02:55:55.199Z,22
2019-01-24T03:01:01.475Z,22
2019-01-24T03:06:07.284Z,22
2019-01-24T03:11:12.331Z,22
2019-01-24T03:16:17.862Z,22
2019-01-24T03:21:23.174Z,21.9
2019-01-24T03:26:28.776Z,21.9
2019-01-24T03:31:34.896Z,21.9
2019-01-24T03:36:40.285Z,21.9
2019-01-24T03:41:44.689Z,21.9
2019-01-24T03:46:51.019Z,21.9
2019-01-24T03:51:56.945Z,21.9
2019-01-24T03:57:02.910Z,21.9
2019-01-24T04:02:08.612Z,21.9
2019-01-24T04:07:13.796Z,21.9
2019-01-24T04:12:22.020Z,21.8
2019-01-24T04:17:27.093Z,21.8
2019-01-24T04:22:32.771Z,21.8
2019-01-24T04:27:38.628Z,21.8
2019-01-24T04:32:43.542Z,21.8
2019-01-24T04:37:48.893Z,21.8
2019-01-24T04:42:55.179Z,21.8
2019-01-24T04:48:01.151Z,21.8
2019-01-24T04:53:06.816Z,21.8
2019-01-24T04:58:12.131Z,21.8
2019-01-24T05:03:18.128Z,21.9
2019-01-24T05:08:23.118Z,22
2019-01-24T05:13:28.403Z,22.1
2019-01-24T05:18:33.916Z,22.1
2019-01-24T05:23:40.560Z,22.2
2019-01-24T05:33:51.592Z,22.3
2019-01-24T05:38:56.563Z,22.3
2019-01-24T05:44:01.973Z,22.4
2019-01-24T05:49:07.781Z,22.4
2019-01-24T05:54:13.520Z,22.5
2019-01-24T05:59:19.482Z,22.5
2019-01-24T06:09:29.471Z,22.6
2019-01-24T06:14:35.374Z,22.6
2019-01-24T06:19:41.179Z,22.6
2019-01-24T06:24:46.413Z,22.6
2019-01-24T06:29:52.046Z,22.7
2019-01-24T06:34:57.433Z,22.7
2019-01-24T06:40:02.623Z,22.7
2019-01-24T06:45:08.468Z,22.7
2019-01-24T06:50:14.058Z,22.7
2019-01-24T06:55:19.231Z,22.8
2019-01-24T07:00:24.548Z,22.8
2019-01-24T07:05:30.099Z,22.8
2019-01-24T07:10:35.604Z,22.9
2019-01-24T07:15:41.547Z,22.9
2019-01-24T07:20:47.647Z,23
2019-01-24T07:25:51.592Z,22.9
2019-01-24T07:30:59.609Z,23
2019-01-24T07:36:05.689Z,23
2019-01-24T07:41:10.793Z,23.1
2019-01-24T07:46:16.655Z,23.1
2019-01-24T07:51:22.001Z,23.1
2019-01-24T07:56:30.606Z,23.1
2019-01-24T08:01:36.262Z,23.1
2019-01-24T08:06:41.492Z,23.1
2019-01-24T08:11:46.446Z,23.1
2019-01-24T08:16:52.107Z,23.1
2019-01-24T08:21:59.077Z,23.2
2019-01-24T08:27:04.845Z,23.2
2019-01-24T08:32:09.996Z,23.2
2019-01-24T08:37:16.858Z,23.2
2019-01-24T08:42:22.835Z,23.2
2019-01-24T08:47:26.968Z,23.2
2019-01-24T08:52:34.827Z,23.2
2019-01-24T08:57:40.081Z,23.2
2019-01-24T09:02:45.561Z,23.2
2019-01-24T09:07:51.225Z,23.2
2019-01-24T09:12:56.380Z,23.2
2019-01-24T09:18:01.840Z,23.2
2019-01-24T09:23:11.731Z,23.2
2019-01-24T09:28:17.250Z,23.2
2019-01-24T09:33:22.600Z,23.2
2019-01-24T09:38:29.999Z,23.1
2019-01-24T09:43:35.173Z,23.1
2019-01-24T09:48:40.697Z,23.1
2019-01-24T09:53:46.284Z,23.1
2019-01-24T09:58:51.492Z,23.1
2019-01-24T10:03:58.132Z,23.1
2019-01-24T10:09:04.400Z,23.1
2019-01-24T10:14:10.106Z,23.1
2019-01-24T10:19:15.341Z,23.1
2019-01-24T10:24:20.981Z,23.1
2019-01-24T10:29:26.799Z,23.1
2019-01-24T10:34:32.071Z,23.1
2019-01-24T10:39:38.049Z,23.1
2019-01-24T10:44:42.301Z,23.1
2019-01-24T10:49:48.236Z,23.1
2019-01-24T10:54:53.750Z,23.1
2019-01-24T10:59:59.575Z,23
2019-01-24T11:05:04.835Z,23
2019-01-24T11:10:12.216Z,23
2019-01-24T11:15:17.845Z,23
2019-01-24T11:20:23.049Z,23
2019-01-24T11:25:28.713Z,23
2019-01-24T11:30:33.779Z,23
2019-01-24T11:35:39.112Z,23
2019-01-24T11:40:44.952Z,22.9
2019-01-24T11:45:50.639Z,22.9
2019-01-24T11:50:56.275Z,22.9
2019-01-24T11:56:02.100Z,22.9
2019-01-24T12:01:07.156Z,22.9
2019-01-24T12:06:12.989Z,22.9
2019-01-24T12:11:18.752Z,22.9
2019-01-24T12:16:23.829Z,22.9
2019-01-24T12:21:29.687Z,23
2019-01-24T12:26:35.513Z,22.9
2019-01-24T12:31:41.960Z,22.9
2019-01-24T12:36:46.384Z,22.9
2019-01-24T12:41:52.813Z,22.9
2019-01-24T12:46:58.335Z,22.9
2019-01-24T12:52:04.655Z,22.9
2019-01-24T12:57:10.190Z,22.9
2019-01-24T13:02:15.927Z,22.9
2019-01-24T13:07:21.628Z,22.9
2019-01-24T13:12:27.657Z,22.9
2019-01-24T13:17:32.969Z,22.9
2019-01-24T13:22:39.181Z,22.9
2019-01-24T13:27:45.082Z,23
2019-01-24T13:32:50.812Z,23
2019-01-24T13:37:56.616Z,23
2019-01-24T13:43:02.586Z,23
2019-01-24T13:48:07.558Z,23
2019-01-24T13:53:13.355Z,23
2019-01-24T13:58:19.261Z,23
2019-01-24T14:03:25.203Z,22.9
2019-01-24T14:08:31.225Z,23
2019-01-24T14:13:37.466Z,23
2019-01-24T14:18:43.176Z,23
2019-01-24T14:23:50.698Z,23
2019-01-24T14:28:55.694Z,23
2019-01-24T14:34:01.675Z,23
2019-01-24T14:39:07.651Z,23
2019-01-24T14:44:13.099Z,23
2019-01-24T14:49:19.701Z,23.1
2019-01-24T14:54:25.833Z,23.1
2019-01-24T14:59:30.951Z,23.1
2019-01-24T15:04:36.441Z,23.1
2019-01-24T15:09:42.441Z,23.1
2019-01-24T15:14:49.011Z,23
2019-01-24T15:19:54.089Z,23
2019-01-24T15:24:59.934Z,23
2019-01-24T15:30:06.010Z,22.9
2019-01-24T15:35:12.934Z,23
2019-01-24T15:40:18.756Z,22.9
2019-01-24T15:45:24.116Z,22.9
2019-01-24T15:50:29.416Z,22.9
2019-01-24T15:55:35.456Z,22.9
2019-01-24T16:00:41.275Z,22.9
2019-01-24T16:05:45.666Z,22.9
2019-01-24T16:10:51.852Z,22.9
2019-01-24T16:15:58.609Z,22.9
2019-01-24T16:21:07.004Z,23
2019-01-24T16:26:12.723Z,23
2019-01-24T16:31:18.047Z,23
2019-01-24T16:36:23.412Z,23
2019-01-24T16:41:29.428Z,23
2019-01-24T16:46:31.524Z,23.1
2019-01-24T16:51:37.030Z,23.2
2019-01-24T16:56:42.453Z,23.3
2019-01-24T17:01:46.203Z,23.4
2019-01-24T17:06:52.188Z,23.4
2019-01-24T17:12:04.394Z,23.4
2019-01-24T17:22:14.727Z,23.5
2019-01-24T17:27:20.028Z,23.5
2019-01-24T17:32:25.930Z,23.4
2019-01-24T17:37:31.120Z,23.4
2019-01-24T17:42:36.488Z,23.4
2019-01-24T17:47:43.269Z,23.3
2019-01-24T17:52:48.462Z,23.4
2019-01-24T17:57:54.515Z,23.5
2019-01-24T18:03:00.006Z,23.3
2019-01-24T18:08:05.592Z,23.3
2019-01-24T18:13:10.694Z,23.2
2019-01-24T18:18:16.453Z,23.3
2019-01-24T18:23:19.933Z,23.2
2019-01-24T18:28:25.523Z,23.2
2019-01-24T18:33:32.761Z,23.1
2019-01-24T18:38:40.392Z,23
2019-01-24T18:43:46.316Z,23
2019-01-24T18:48:56.390Z,23
2019-01-24T18:54:02.201Z,19.1
2019-01-24T18:59:06.437Z,17.4
2019-01-24T19:04:12.115Z,18.7
2019-01-24T19:14:22.196Z,20.3
2019-01-24T19:19:28.193Z,20.7
2019-01-24T19:24:35.273Z,21.3
2019-01-24T19:29:40.923Z,21.3
2019-01-24T19:34:48.759Z,21.5
2019-01-24T19:39:54.859Z,21.8
2019-01-24T19:45:00.189Z,21.8
2019-01-24T19:50:05.365Z,22
2019-01-24T19:55:10.658Z,22.1
2019-01-24T20:00:16.413Z,22.2
2019-01-24T20:05:21.689Z,22.3
2019-01-24T20:10:26.975Z,22.4
2019-01-24T20:15:33.793Z,22.4
2019-01-24T20:20:39.453Z,22.5
2019-01-24T20:25:44.530Z,22.5
2019-01-24T20:30:49.581Z,23
2019-01-24T20:35:54.724Z,23.5
2019-01-24T20:41:00.365Z,25.6
2019-01-24T20:46:06.199Z,25.5
2019-01-24T20:51:11.342Z,26.1
2019-01-24T20:56:16.704Z,26.6
2019-01-24T21:01:24.373Z,27
2019-01-24T21:06:29.397Z,27
2019-01-24T21:11:34.669Z,27
2019-01-24T21:16:41.859Z,27.2
2019-01-24T21:21:48.218Z,25.4
2019-01-24T21:26:55.080Z,25.4
2019-01-24T21:32:01.429Z,23.9
2019-01-24T21:37:06.088Z,23.5
2019-01-24T21:42:11.692Z,23.5
2019-01-24T21:47:17.207Z,23.4
2019-01-24T21:52:21.361Z,23.2
2019-01-24T21:57:27.218Z,23.1
2019-01-24T22:02:33.181Z,23.1
2019-01-24T22:07:38.669Z,23.1
2019-01-24T22:12:44.783Z,23.1
2019-01-24T22:17:50.525Z,23.1
2019-01-24T22:22:55.967Z,23
2019-01-24T22:28:01.791Z,23
2019-01-24T22:33:07.662Z,23
2019-01-24T22:43:17.212Z,22.9
2019-01-24T22:48:23.206Z,22.9
2019-01-24T22:53:28.728Z,22.9
2019-01-24T22:58:33.822Z,22.8
2019-01-24T23:03:39.641Z,22.8
2019-01-24T23:08:45.271Z,22.8
2019-01-24T23:13:51.589Z,22.8
2019-01-24T23:18:57.400Z,22.7
2019-01-24T23:24:04.285Z,22.6
2019-01-24T23:29:09.511Z,22.6
2019-01-24T23:34:15.389Z,22.7
2019-01-24T23:39:21.043Z,22.6
2019-01-24T23:44:26.628Z,22.6
2019-01-24T23:49:31.960Z,22.6
2019-01-24T23:54:37.476Z,22.6
2019-01-24T23:59:42.926Z,22.6
